createdAt,value
2019-04-22T20:31:03.987Z,2.60
2019-04-22T20:33:35.289Z,2.85
2019-04-22T20:36:03.726Z,2.87
2019-04-22T20:38:31.070Z,2.95
2019-04-22T20:40:58.086Z,3.08
2019-04-22T20:43:36.927Z,2.80
2019-04-22T20:45:59.207Z,2.77
2019-04-22T20:48:22.250Z,2.98
2019-04-22T20:50:59.599Z,2.90
2019-04-22T20:53:32.911Z,3.22
2019-04-22T20:55:52.523Z,3.05
2019-04-22T20:58:28.534Z,3.10
2019-04-22T21:00:46.308Z,2.90
2019-04-22T21:03:17.476Z,3.05
2019-04-22T21:05:44.477Z,2.90
2019-04-22T21:08:23.935Z,2.95
2019-04-22T21:10:44.570Z,3.17
2019-04-22T21:13:15.503Z,2.67
2019-04-22T21:15:50.474Z,2.87
2019-04-22T21:18:13.404Z,2.52
2019-04-22T21:20:49.512Z,2.98
2019-04-22T21:23:16.469Z,3.00
2019-04-22T21:25:36.865Z,3.20
2019-04-22T21:28:14.463Z,2.95
2019-04-22T21:30:43.381Z,3.00
2019-04-22T21:33:13.479Z,3.00
2019-04-22T21:35:59.563Z,2.98
2019-04-22T21:38:19.637Z,2.75
2019-04-22T21:40:40.359Z,3.10
2019-04-22T21:43:13.388Z,3.30
2019-04-22T21:45:32.221Z,3.12
2019-04-22T21:48:24.110Z,3.02
2019-04-22T21:50:50.240Z,2.90
2019-04-22T21:53:17.707Z,3.00
2019-04-22T21:55:43.708Z,3.00
2019-04-22T21:58:19.505Z,3.15
2019-04-22T22:01:17.087Z,2.98
2019-04-22T22:03:42.857Z,3.20
2019-04-22T22:06:02.332Z,2.92
2019-04-22T22:08:42.742Z,3.17
2019-04-22T22:11:07.921Z,3.10
2019-04-22T22:13:41.411Z,3.45
2019-04-22T22:16:05.171Z,4.08
2019-04-22T22:18:30.356Z,4.62
2019-04-22T22:21:19.426Z,3.62
2019-04-22T22:23:38.812Z,3.90
2019-04-22T22:25:59.644Z,4.15
2019-04-22T22:28:45.482Z,3.77
2019-04-22T22:31:11.723Z,3.60
2019-04-22T22:33:31.969Z,3.45
2019-04-22T22:35:58.444Z,3.70
2019-04-22T22:38:27.053Z,3.55
2019-04-22T22:40:41.553Z,3.27
2019-04-22T22:43:17.219Z,2.75
2019-04-22T22:45:44.967Z,3.02
2019-04-22T22:48:32.097Z,3.15
2019-04-22T22:50:50.902Z,2.75
2019-04-22T22:53:34.297Z,2.83
2019-04-22T22:55:54.793Z,3.35
2019-04-22T22:58:24.673Z,3.25
2019-04-22T23:00:44.409Z,3.25
2019-04-22T23:03:40.527Z,3.12
2019-04-22T23:06:03.603Z,3.27
2019-04-22T23:08:25.713Z,3.00
2019-04-22T23:11:07.117Z,3.12
2019-04-22T23:13:21.550Z,2.92
2019-04-22T23:15:46.692Z,3.83
2019-04-22T23:17:58.108Z,3.30
2019-04-22T23:20:31.227Z,3.30
2019-04-22T23:23:13.739Z,3.72
2019-04-22T23:25:50.033Z,3.25
2019-04-22T23:28:30.076Z,3.35
2019-04-22T23:31:14.406Z,3.58
2019-04-22T23:33:52.608Z,3.37
2019-04-22T23:36:37.084Z,3.65
2019-04-22T23:39:15.742Z,3.67
2019-04-22T23:44:20.155Z,3.75
2019-04-22T23:46:59.831Z,3.45
2019-04-22T23:49:25.266Z,3.35
2019-04-22T23:52:11.421Z,3.35
2019-04-22T23:54:39.026Z,3.60
2019-04-22T23:56:57.071Z,3.60
2019-04-22T23:59:44.911Z,3.35
